createdAt,value
2017-12-04T02:07:39.024Z,60.78
2017-12-04T02:10:05.772Z,63.53
2017-12-04T02:12:32.652Z,76.10
2017-12-04T02:15:01.111Z,63.42
2017-12-04T02:17:28.984Z,66.00
2017-12-04T02:19:58.653Z,38.78
2017-12-04T02:22:25.678Z,39.65
2017-12-04T02:24:53.084Z,49.65
2017-12-04T02:27:20.646Z,45.40
2017-12-04T02:29:47.690Z,40.67
2017-12-04T02:32:14.674Z,32.58
2017-12-04T02:34:44.819Z,21.92
2017-12-04T02:37:11.768Z,21.60
2017-12-04T02:39:38.479Z,32.22
2017-12-04T02:42:05.196Z,23.73
2017-12-04T02:44:31.912Z,29.17
2017-12-04T02:46:58.956Z,25.65
2017-12-04T02:49:25.782Z,24.85
2017-12-04T02:51:52.632Z,24.83
2017-12-04T02:54:19.370Z,27.10
2017-12-04T02:56:46.313Z,22.52
2017-12-04T02:59:13.400Z,28.85
2017-12-04T03:01:40.469Z,26.45
2017-12-04T03:06:38.211Z,23.38
2017-12-04T03:09:04.932Z,28.75
2017-12-04T03:11:31.960Z,30.62
2017-12-04T03:13:58.692Z,26.37
2017-12-04T03:16:25.420Z,30.75
2017-12-04T03:18:53.995Z,30.35
2017-12-04T03:21:21.194Z,27.87
2017-12-04T03:23:47.922Z,26.85
2017-12-04T03:26:14.906Z,27.67
2017-12-04T03:28:41.670Z,33.63
2017-12-04T03:31:08.725Z,31.20
2017-12-04T03:33:35.517Z,22.25
2017-12-04T03:36:02.472Z,34.92
2017-12-04T03:38:30.843Z,26.12
2017-12-04T03:40:59.339Z,27.48
2017-12-04T03:45:57.120Z,26.65
2017-12-04T03:48:24.711Z,26.02
2017-12-04T03:50:53.595Z,29.52
2017-12-04T03:53:20.786Z,26.67
2017-12-04T03:55:47.909Z,25.65
2017-12-04T04:03:28.942Z,26.33
2017-12-04T04:05:55.658Z,20.42
2017-12-04T04:08:22.388Z,22.58
2017-12-04T04:10:49.101Z,26.58
2017-12-04T04:13:16.159Z,28.92
2017-12-04T04:15:43.199Z,21.08
2017-12-04T04:18:10.052Z,21.00
2017-12-04T04:20:36.826Z,29.23
2017-12-04T04:23:03.844Z,30.23
2017-12-04T04:25:30.610Z,28.80
2017-12-04T04:27:57.298Z,27.20
2017-12-04T04:30:24.072Z,30.23
2017-12-04T04:32:50.795Z,28.80
2017-12-04T04:35:17.760Z,27.02
2017-12-04T04:37:44.707Z,27.50
2017-12-04T04:40:11.508Z,22.95
2017-12-04T04:42:38.237Z,22.27
2017-12-04T04:45:05.232Z,20.00
2017-12-04T04:47:32.152Z,26.65
2017-12-04T04:49:59.185Z,23.98
2017-12-04T04:52:26.225Z,20.20
2017-12-04T04:54:53.216Z,20.27
2017-12-04T04:57:19.994Z,22.92
2017-12-04T04:59:47.017Z,18.60
2017-12-04T05:02:13.768Z,28.73
2017-12-04T05:04:40.995Z,28.42
2017-12-04T05:07:09.783Z,21.50
2017-12-04T05:09:36.908Z,19.90
2017-12-04T05:12:04.021Z,15.10
2017-12-04T05:14:30.818Z,16.27
2017-12-04T05:16:58.067Z,14.57
2017-12-04T05:22:12.972Z,15.20
2017-12-04T05:24:39.753Z,16.75
2017-12-04T05:27:07.325Z,20.17
2017-12-04T05:29:36.174Z,16.65
2017-12-04T05:32:04.391Z,15.25
2017-12-04T05:34:31.471Z,20.20
2017-12-04T05:36:58.656Z,20.20
2017-12-04T05:39:26.645Z,15.07
2017-12-04T05:41:55.348Z,24.87
2017-12-04T05:46:53.982Z,22.50
2017-12-04T05:54:32.093Z,17.23
2017-12-04T05:57:01.058Z,25.27
2017-12-04T05:59:29.546Z,18.52
2017-12-04T06:01:57.094Z,21.42
2017-12-04T06:06:58.298Z,18.98
2017-12-04T06:09:26.795Z,30.40
2017-12-04T06:11:54.783Z,20.70
2017-12-04T06:14:21.783Z,23.87
2017-12-04T06:16:49.686Z,30.88
2017-12-04T06:19:16.652Z,26.52
2017-12-04T06:21:47.707Z,26.48
2017-12-04T06:26:52.963Z,20.55
2017-12-04T06:29:20.557Z,19.15
2017-12-04T06:31:48.298Z,25.65
2017-12-04T06:34:15.126Z,26.90
2017-12-04T06:36:42.583Z,28.92
2017-12-04T06:41:41.595Z,30.00
2017-12-04T06:44:08.572Z,22.95
2017-12-04T06:46:36.348Z,14.70
2017-12-04T06:49:03.469Z,12.80
2017-12-04T06:51:30.654Z,20.30
2017-12-04T06:53:57.399Z,15.88
2017-12-04T06:58:58.463Z,15.63
2017-12-04T07:01:25.549Z,12.05
2017-12-04T07:06:25.110Z,11.60
2017-12-04T07:08:52.191Z,16.20
2017-12-04T07:11:19.360Z,13.07
2017-12-04T07:13:46.151Z,10.07
2017-12-04T07:16:13.227Z,12.37
2017-12-04T07:18:40.241Z,15.40
2017-12-04T07:21:07.864Z,14.60
2017-12-04T07:23:34.947Z,14.43
2017-12-04T07:26:06.391Z,13.55
2017-12-04T07:28:33.221Z,16.50
2017-12-04T07:31:00.481Z,16.98
2017-12-04T07:33:27.564Z,11.80
2017-12-04T07:35:54.344Z,16.65
2017-12-04T07:38:21.822Z,16.73
2017-12-04T07:40:49.311Z,12.48
2017-12-04T07:45:48.112Z,15.75
2017-12-04T07:48:15.185Z,19.45
2017-12-04T07:50:42.319Z,16.33
2017-12-04T07:53:10.677Z,14.93
2017-12-04T07:55:39.175Z,17.37
2017-12-04T07:58:06.928Z,16.52
2017-12-04T08:00:33.943Z,15.13
2017-12-04T08:03:00.692Z,21.00
2017-12-04T08:05:31.039Z,18.37
2017-12-04T08:07:57.796Z,19.33
2017-12-04T08:10:26.160Z,17.25
2017-12-04T08:12:56.561Z,16.60
2017-12-04T08:15:24.129Z,17.50
2017-12-04T08:17:50.919Z,15.95
2017-12-04T08:22:48.699Z,17.55
2017-12-04T08:25:15.829Z,19.10
2017-12-04T08:30:15.335Z,22.52
2017-12-04T08:32:42.829Z,15.85
2017-12-04T08:35:09.814Z,12.88
2017-12-04T08:37:36.585Z,18.35
2017-12-04T08:40:03.694Z,17.08
2017-12-04T08:42:30.695Z,8.40
2017-12-04T08:44:58.339Z,9.45
2017-12-04T08:47:25.081Z,15.98
2017-12-04T08:49:51.831Z,14.55
2017-12-04T08:52:22.448Z,18.55
2017-12-04T08:54:50.807Z,14.13
2017-12-04T08:59:48.570Z,12.45
2017-12-04T09:02:15.668Z,15.60
2017-12-04T09:07:13.766Z,16.37
2017-12-04T09:09:41.341Z,12.20
2017-12-04T09:12:09.753Z,16.67
2017-12-04T09:14:36.492Z,11.40
2017-12-04T09:17:04.866Z,17.37
2017-12-04T09:19:32.311Z,10.82
2017-12-04T09:21:59.064Z,12.27
2017-12-04T09:24:26.099Z,12.77
2017-12-04T09:26:52.851Z,10.93
2017-12-04T09:29:19.905Z,20.55
2017-12-04T09:31:46.931Z,8.98
2017-12-04T09:34:13.962Z,12.43
2017-12-04T09:36:41.541Z,18.45
2017-12-04T09:39:09.928Z,16.83
2017-12-04T09:41:36.678Z,18.05
2017-12-04T09:44:04.160Z,13.73
2017-12-04T09:46:31.935Z,14.73
2017-12-04T09:48:59.159Z,14.32
2017-12-04T09:51:25.934Z,18.92
2017-12-04T09:53:52.759Z,15.38
2017-12-04T09:56:19.578Z,20.02
2017-12-04T09:58:46.685Z,21.27
2017-12-04T10:01:13.808Z,22.98
2017-12-04T10:03:40.879Z,23.67
2017-12-04T10:06:08.423Z,20.20
2017-12-04T10:08:35.503Z,15.95
2017-12-04T10:11:02.364Z,20.12
2017-12-04T10:13:30.532Z,16.17
2017-12-04T10:15:57.964Z,16.20
2017-12-04T10:18:25.023Z,11.57
2017-12-04T10:20:52.567Z,11.40
2017-12-04T10:23:19.747Z,7.65
2017-12-04T10:25:46.530Z,13.23
2017-12-04T10:28:13.693Z,7.40
2017-12-04T10:30:40.747Z,11.20
2017-12-04T10:33:07.530Z,13.30
2017-12-04T10:35:34.270Z,12.95
2017-12-04T10:38:01.771Z,10.50
2017-12-04T10:40:28.979Z,8.07
2017-12-04T10:42:55.783Z,9.07
2017-12-04T10:45:22.963Z,8.77
2017-12-04T10:47:50.059Z,6.10
2017-12-04T10:50:17.575Z,9.50
2017-12-04T10:52:44.677Z,7.15
2017-12-04T10:55:11.840Z,4.55
2017-12-04T10:57:39.040Z,13.43
2017-12-04T11:00:05.843Z,5.78
2017-12-04T11:02:32.987Z,9.73
2017-12-04T11:04:59.789Z,8.50
2017-12-04T11:07:26.793Z,9.20
2017-12-04T11:09:54.114Z,14.20
2017-12-04T11:12:21.218Z,12.50
2017-12-04T11:14:48.790Z,10.85
2017-12-04T11:17:15.852Z,18.30
2017-12-04T11:19:42.896Z,7.30
2017-12-04T11:22:09.895Z,8.93
2017-12-04T11:24:37.070Z,13.48
2017-12-04T11:27:03.942Z,14.02
2017-12-04T11:29:31.047Z,15.82
2017-12-04T11:31:58.119Z,21.02
2017-12-04T11:34:24.927Z,13.10
2017-12-04T11:36:52.004Z,14.23
2017-12-04T11:39:19.107Z,9.82
2017-12-04T11:41:46.164Z,12.18
2017-12-04T11:44:13.189Z,13.27
2017-12-04T11:46:39.980Z,12.80
2017-12-04T11:49:07.075Z,7.18
2017-12-04T11:51:34.265Z,9.13
2017-12-04T11:54:01.102Z,8.18
2017-12-04T11:56:28.595Z,8.63
2017-12-04T11:58:55.615Z,10.73
2017-12-04T12:01:22.348Z,7.78
2017-12-04T12:03:49.802Z,11.27
2017-12-04T12:06:16.610Z,11.30
2017-12-04T12:08:44.347Z,14.63
2017-12-04T12:11:11.802Z,20.10
2017-12-04T12:13:38.583Z,17.10
2017-12-04T12:16:05.336Z,15.27
2017-12-04T12:18:32.184Z,17.70
2017-12-04T12:20:58.947Z,12.30
2017-12-04T12:23:25.956Z,8.60
2017-12-04T12:25:53.450Z,13.95
2017-12-04T12:28:20.656Z,10.05
2017-12-04T12:30:47.705Z,8.63
2017-12-04T12:33:14.738Z,7.00
2017-12-04T12:35:41.837Z,16.35
2017-12-04T12:38:08.905Z,8.32
2017-12-04T12:40:35.670Z,11.57
2017-12-04T12:43:03.508Z,8.63
2017-12-04T12:45:30.668Z,15.40
2017-12-04T12:47:57.686Z,12.35
2017-12-04T12:50:24.832Z,9.15
2017-12-04T12:52:51.894Z,6.22
2017-12-04T12:55:20.318Z,6.18
2017-12-04T12:57:47.393Z,2.40
2017-12-04T13:00:14.133Z,2.72
2017-12-04T13:02:40.963Z,3.37
2017-12-04T13:05:07.737Z,3.92
2017-12-04T13:07:34.756Z,7.57
2017-12-04T13:10:01.517Z,6.43
2017-12-04T13:12:28.235Z,3.70
2017-12-04T13:14:54.970Z,6.25
2017-12-04T13:17:21.964Z,7.00
2017-12-04T13:19:48.760Z,13.57
2017-12-04T13:23:24.354Z,13.85
2017-12-04T13:25:51.563Z,12.40
2017-12-04T13:28:18.637Z,12.93
2017-12-04T13:30:46.267Z,15.00
2017-12-04T13:33:19.376Z,11.35
2017-12-04T13:35:52.123Z,14.73
2017-12-04T13:38:19.312Z,10.63
2017-12-04T13:40:46.366Z,6.85
2017-12-04T13:43:13.438Z,4.68
2017-12-04T13:45:40.533Z,8.60
2017-12-04T13:48:07.574Z,6.82
2017-12-04T13:50:34.631Z,9.80
2017-12-04T13:53:01.774Z,10.13
2017-12-04T13:55:29.425Z,6.85
2017-12-04T13:57:56.698Z,6.70
2017-12-04T14:00:24.242Z,5.20
2017-12-04T14:02:51.937Z,6.60
2017-12-04T14:05:20.695Z,5.07
2017-12-04T14:07:48.243Z,5.53
2017-12-04T14:10:15.250Z,5.75
2017-12-04T14:12:42.280Z,3.00
2017-12-04T14:15:09.419Z,5.97
2017-12-04T14:17:39.756Z,4.70
2017-12-04T14:20:07.223Z,4.80
2017-12-04T14:22:34.275Z,3.72
2017-12-04T14:25:01.324Z,2.87
2017-12-04T14:27:28.412Z,1.90
2017-12-04T14:29:55.544Z,1.62
2017-12-04T14:32:22.702Z,2.28
2017-12-04T14:34:49.792Z,4.00
2017-12-04T14:37:17.399Z,1.50
2017-12-04T14:39:44.951Z,2.55
2017-12-04T14:42:12.103Z,1.58
2017-12-04T14:44:39.190Z,4.90
2017-12-04T14:47:06.246Z,4.68
2017-12-04T14:49:33.442Z,3.25
2017-12-04T14:52:00.594Z,6.85
2017-12-04T14:54:27.628Z,12.07
2017-12-04T14:56:54.842Z,19.85
2017-12-04T14:59:22.048Z,17.67
2017-12-04T15:01:49.148Z,18.30
2017-12-04T15:04:16.185Z,15.45
2017-12-04T15:06:43.387Z,15.13
2017-12-04T15:09:10.192Z,23.62
2017-12-04T15:11:37.289Z,32.55
2017-12-04T15:14:04.365Z,28.10
2017-12-04T15:16:31.479Z,21.87
2017-12-04T15:18:59.296Z,16.75
2017-12-04T15:21:26.589Z,14.77
2017-12-04T15:23:53.769Z,14.45
2017-12-04T15:26:20.852Z,14.50
2017-12-04T15:28:47.992Z,13.25
2017-12-04T15:31:15.591Z,7.72
2017-12-04T15:33:42.731Z,13.25
2017-12-04T15:36:09.756Z,7.57
2017-12-04T15:38:36.835Z,6.22
2017-12-04T15:41:03.618Z,7.55
2017-12-04T15:43:30.678Z,4.35
2017-12-04T15:45:58.212Z,5.47
2017-12-04T15:48:25.248Z,4.30
2017-12-04T15:50:52.924Z,8.32
2017-12-04T15:53:20.102Z,9.82
2017-12-04T15:55:47.312Z,8.30
2017-12-04T15:58:14.402Z,12.13
2017-12-04T16:00:41.517Z,7.15
2017-12-04T16:03:08.601Z,5.68
2017-12-04T16:05:35.756Z,7.10
2017-12-04T16:08:02.767Z,6.90
2017-12-04T16:10:30.260Z,7.70
2017-12-04T16:12:57.280Z,6.60
2017-12-04T16:15:24.363Z,9.48
2017-12-04T16:17:51.472Z,7.87
2017-12-04T16:20:18.529Z,8.50
2017-12-04T16:22:45.675Z,7.87
2017-12-04T16:25:12.751Z,6.87
2017-12-04T16:27:39.728Z,8.23
2017-12-04T16:30:07.337Z,4.47
2017-12-04T16:32:34.408Z,6.05
2017-12-04T16:35:01.560Z,6.78
2017-12-04T16:37:28.781Z,8.48
2017-12-04T16:39:55.842Z,5.30
2017-12-04T16:42:22.961Z,11.75
2017-12-04T16:44:50.194Z,9.63
2017-12-04T16:47:16.958Z,6.78
2017-12-04T16:49:43.987Z,8.10
2017-12-04T16:52:11.143Z,7.20
2017-12-04T16:54:38.233Z,6.40
2017-12-04T16:57:05.283Z,5.22
2017-12-04T16:59:33.048Z,7.43
2017-12-04T17:02:00.295Z,6.78
2017-12-04T17:04:28.596Z,8.23
2017-12-04T17:06:55.752Z,5.75
2017-12-04T17:09:22.962Z,10.25
2017-12-04T17:11:50.125Z,8.00
2017-12-04T17:14:17.328Z,5.82
2017-12-04T17:16:44.423Z,5.22
2017-12-04T17:19:11.648Z,5.15
2017-12-04T17:21:38.750Z,5.30
2017-12-04T17:26:37.421Z,9.23
2017-12-04T17:29:04.465Z,12.80
2017-12-04T17:31:31.456Z,24.87
2017-12-04T17:33:58.183Z,15.82
2017-12-04T17:36:25.257Z,22.75
2017-12-04T17:38:51.971Z,25.45
2017-12-04T17:41:19.036Z,21.65
2017-12-04T17:43:45.752Z,20.00
2017-12-04T17:46:12.452Z,21.23
2017-12-04T17:48:40.791Z,23.33
2017-12-04T17:51:07.530Z,26.52
2017-12-04T17:53:34.224Z,30.17
2017-12-04T17:56:00.932Z,34.40
2017-12-04T17:58:27.639Z,33.08
2017-12-04T18:00:54.343Z,38.42
2017-12-04T18:03:21.034Z,32.72
2017-12-04T18:05:47.748Z,30.48
2017-12-04T18:08:14.796Z,26.85
2017-12-04T18:10:41.503Z,23.98
2017-12-04T18:13:08.186Z,22.25
2017-12-04T18:15:34.912Z,24.45
2017-12-04T18:18:02.272Z,24.48
2017-12-04T18:20:29.045Z,28.90
2017-12-04T18:22:55.735Z,23.83
2017-12-04T18:25:22.439Z,28.35
2017-12-04T18:27:49.956Z,25.25
2017-12-04T18:30:16.668Z,17.85
2017-12-04T18:32:45.766Z,16.77
2017-12-04T18:35:12.491Z,14.90
2017-12-04T18:37:40.093Z,15.48
2017-12-04T18:40:08.051Z,20.40
2017-12-04T18:42:35.486Z,14.18
2017-12-04T18:45:06.311Z,11.70
2017-12-04T18:50:18.188Z,8.85
2017-12-04T18:52:44.998Z,12.63
2017-12-04T18:55:12.574Z,9.00
2017-12-04T18:57:39.976Z,11.23
2017-12-04T19:00:06.919Z,13.90
2017-12-04T19:05:11.607Z,13.73
2017-12-04T19:07:39.355Z,13.95
2017-12-04T19:10:06.127Z,14.10
2017-12-04T19:12:32.828Z,20.33
2017-12-04T19:14:59.777Z,13.60
2017-12-04T19:17:27.435Z,14.75
2017-12-04T19:19:55.532Z,11.45
2017-12-04T19:22:22.704Z,12.40
2017-12-04T19:24:49.416Z,13.82
2017-12-04T19:27:16.335Z,9.88
2017-12-04T19:29:43.379Z,13.00
2017-12-04T19:32:11.772Z,13.52
2017-12-04T19:34:38.464Z,17.33
2017-12-04T19:37:05.275Z,6.87
2017-12-04T19:39:32.035Z,7.50
2017-12-04T19:42:00.081Z,11.27
2017-12-04T19:44:26.772Z,15.02
2017-12-04T19:46:53.536Z,11.48
2017-12-04T19:49:20.211Z,16.77
2017-12-04T19:51:46.931Z,12.50
2017-12-04T19:54:13.618Z,10.40
2017-12-04T19:56:40.335Z,12.18
2017-12-04T19:59:07.027Z,11.07
2017-12-04T20:01:33.727Z,13.00
2017-12-04T20:04:00.408Z,7.65
2017-12-04T20:06:27.125Z,10.77
2017-12-04T20:08:54.352Z,11.40
2017-12-04T20:11:22.148Z,10.90
2017-12-04T20:13:49.051Z,8.05
2017-12-04T20:16:18.268Z,8.10
2017-12-04T20:18:44.951Z,8.38
2017-12-04T20:21:12.066Z,11.73
2017-12-04T20:23:40.596Z,10.68
2017-12-04T20:26:08.357Z,10.65
2017-12-04T20:28:35.731Z,11.20
2017-12-04T20:31:02.844Z,12.27
2017-12-04T20:36:09.723Z,11.68
2017-12-04T20:38:41.076Z,18.52
2017-12-04T20:41:08.058Z,20.37
2017-12-04T20:43:34.829Z,22.98
2017-12-04T20:46:02.052Z,21.60
2017-12-04T20:48:29.497Z,27.85
2017-12-04T20:50:57.068Z,26.55
2017-12-04T20:53:26.279Z,28.23
2017-12-04T20:55:52.963Z,19.05
2017-12-04T20:58:20.420Z,31.33
2017-12-04T21:00:47.406Z,24.60
2017-12-04T21:03:16.071Z,33.03
2017-12-04T21:05:43.542Z,33.45
2017-12-04T21:08:16.835Z,27.77
2017-12-04T21:10:49.552Z,19.25
2017-12-04T21:13:22.128Z,24.02
2017-12-04T21:15:54.571Z,16.95
2017-12-04T21:18:22.222Z,16.20
2017-12-04T21:20:48.936Z,21.45
2017-12-04T21:23:16.043Z,15.10
2017-12-04T21:25:42.727Z,16.58
2017-12-04T21:28:09.833Z,17.20
2017-12-04T21:30:36.972Z,12.88
2017-12-04T21:33:05.331Z,9.77
2017-12-04T21:35:32.596Z,14.70
2017-12-04T21:38:00.345Z,18.55
2017-12-04T21:40:28.430Z,19.62
2017-12-04T21:42:56.019Z,17.67
2017-12-04T21:45:23.847Z,13.35
2017-12-04T21:47:50.564Z,7.93
2017-12-04T21:50:18.233Z,14.73
2017-12-04T21:52:49.339Z,27.40
2017-12-04T21:55:16.044Z,24.00
2017-12-04T21:57:42.756Z,25.80
2017-12-04T22:00:10.411Z,26.50
2017-12-04T22:02:37.357Z,24.50
2017-12-04T22:05:04.053Z,28.27
2017-12-04T22:07:31.109Z,18.50
2017-12-04T22:09:59.998Z,19.42
2017-12-04T22:12:27.395Z,12.95
2017-12-04T22:14:54.582Z,9.75
2017-12-04T22:17:24.177Z,13.30
2017-12-04T22:19:51.594Z,9.43
2017-12-04T22:22:19.239Z,17.33
2017-12-04T22:24:46.185Z,12.65
2017-12-04T22:27:13.289Z,11.88
2017-12-04T22:29:40.260Z,14.87
2017-12-04T22:32:07.000Z,20.10
2017-12-04T22:34:35.209Z,13.35
2017-12-04T22:37:02.265Z,16.85
2017-12-04T22:39:30.077Z,12.70
2017-12-04T22:41:57.528Z,16.92
2017-12-04T22:44:25.176Z,18.37
2017-12-04T22:46:52.932Z,16.98
2017-12-04T22:49:22.339Z,18.70
2017-12-04T22:51:49.581Z,17.83
2017-12-04T22:54:17.820Z,21.08
2017-12-04T22:56:47.923Z,13.75
2017-12-04T22:59:14.676Z,21.00
2017-12-04T23:01:43.945Z,14.43
2017-12-04T23:04:11.241Z,18.12
2017-12-04T23:06:39.041Z,19.98
2017-12-04T23:17:02.627Z,4.80
2017-12-04T23:19:29.590Z,37.60
2017-12-04T23:21:57.454Z,19.80
2017-12-04T23:24:25.193Z,41.40
2017-12-04T23:26:54.421Z,21.12
2017-12-04T23:29:22.844Z,7.95
2017-12-04T23:31:49.587Z,10.88
2017-12-04T23:34:17.200Z,8.50
2017-12-04T23:36:44.421Z,17.45
2017-12-04T23:39:11.167Z,11.73
2017-12-04T23:41:38.235Z,10.52
2017-12-04T23:44:06.518Z,24.63
2017-12-04T23:46:34.188Z,17.30
2017-12-04T23:49:01.870Z,21.08
2017-12-04T23:51:28.715Z,10.63
2017-12-04T23:53:56.514Z,23.40
2017-12-04T23:56:24.591Z,13.65
2017-12-04T23:58:52.461Z,15.45
